Time;durP1;ratioP1;P1;durP2;ratioP2;P2;SDS_P1;SDS_P2;PMS_P1;PMS_P2;Temp;Humidity;BMP_temperature;BMP_pressure;BME280_temperature;BME280_humidity;BME280_pressure;Samples;Min_cycle;Max_cycle;Signal;HPM_P1;HPM_P2
2020/12/30 00:03:46;;;;;;;5.50;4.07;;;;;;;4.96;77.25;98378.75;10383130;28;20492;-73
2020/12/30 00:08:48;;;;;;;5.88;4.70;;;;;;;4.90;77.20;98378.47;10387735;28;20054;-74
2020/12/30 00:13:50;;;;;;;7.95;5.00;;;;;;;4.95;77.52;98386.81;10392350;28;20067;-74
2020/12/30 00:18:51;;;;;;;6.18;4.47;;;;;;;4.86;77.58;98372.59;10405997;28;20045;-73
2020/12/30 00:23:52;;;;;;;4.55;3.80;;;;;;;4.75;78.39;98385.91;10405579;28;20049;-73
2020/12/30 00:28:53;;;;;;;5.78;4.53;;;;;;;4.69;79.15;98383.78;10406495;28;20050;-73
2020/12/30 00:33:55;;;;;;;5.15;4.43;;;;;;;4.73;79.21;98388.66;10391536;28;20049;-75
2020/12/30 00:38:56;;;;;;;4.35;3.90;;;;;;;4.72;79.71;98391.44;10402791;28;20197;-74
2020/12/30 00:43:57;;;;;;;7.18;5.25;;;;;;;4.75;79.80;98393.81;10402610;28;20506;-74
2020/12/30 00:48:58;;;;;;;7.45;6.22;;;;;;;4.74;80.20;98392.13;10386537;28;20492;-74
2020/12/30 00:54:00;;;;;;;8.80;7.05;;;;;;;4.86;79.86;98404.25;10389815;28;20045;-74
2020/12/30 00:59:01;;;;;;;7.40;6.70;;;;;;;5.02;79.36;98409.03;10389024;28;20197;-74
2020/12/30 01:04:02;;;;;;;8.48;6.25;;;;;;;5.04;78.81;98412.38;10390457;28;20124;-74
2020/12/30 01:09:06;;;;;;;7.13;6.32;;;;;;;4.95;79.56;98421.09;10385878;28;20049;-73
2020/12/30 01:14:08;;;;;;;7.80;7.00;;;;;;;5.03;79.42;98436.22;10398395;28;20123;-74
2020/12/30 01:19:09;;;;;;;9.38;7.82;;;;;;;5.04;79.27;98427.38;10388764;28;20048;-73
2020/12/30 01:24:11;;;;;;;8.02;7.28;;;;;;;4.95;79.27;98434.25;10403344;28;20491;-73
2020/12/30 01:29:13;;;;;;;8.18;7.30;;;;;;;4.94;79.31;98435.25;10397451;28;20053;-74
2020/12/30 01:34:14;;;;;;;8.43;7.50;;;;;;;4.95;79.32;98440.38;10394558;28;20380;-73
2020/12/30 01:39:15;;;;;;;9.00;7.50;;;;;;;4.96;79.50;98435.94;10399790;28;20064;-74
2020/12/30 01:44:17;;;;;;;7.82;7.03;;;;;;;5.07;79.72;98438.47;10403020;28;20123;-73
2020/12/30 01:49:22;;;;;;;8.93;7.65;;;;;;;5.16;78.97;98446.56;10419891;28;20053;-73
2020/12/30 01:54:27;;;;;;;7.47;6.65;;;;;;;5.19;78.82;98443.66;10411818;28;20072;-75
2020/12/30 01:59:28;;;;;;;10.20;7.38;;;;;;;5.26;78.89;98448.25;10409339;28;20088;-73
2020/12/30 02:04:49;;;;;;;9.23;7.15;;;;;;;5.34;78.11;98446.75;10387858;28;20115;-74
2020/12/30 02:09:51;;;;;;;8.98;6.68;;;;;;;5.36;77.96;98452.72;10393108;28;20562;-74
2020/12/30 02:14:53;;;;;;;8.15;7.03;;;;;;;5.37;77.57;98454.41;10388991;28;20630;-73
2020/12/30 02:19:54;;;;;;;7.68;6.90;;;;;;;5.41;77.79;98455.81;10377763;28;20463;-74
2020/12/30 02:24:55;;;;;;;7.55;6.75;;;;;;;5.39;78.18;98457.75;10380507;28;20049;-73
2020/12/30 02:29:57;;;;;;;9.50;6.90;;;;;;;5.41;77.41;98456.66;10371006;28;20137;-75
2020/12/30 02:34:58;;;;;;;8.30;7.43;;;;;;;5.38;78.13;98456.09;10384607;28;20046;-73
2020/12/30 02:39:59;;;;;;;7.78;6.70;;;;;;;5.39;77.53;98452.47;10382105;28;20447;-73
2020/12/30 02:45:06;;;;;;;9.75;6.47;;;;;;;5.40;77.65;98454.13;10386995;28;20048;-73
2020/12/30 02:50:08;;;;;;;10.02;7.47;;;;;;;5.44;77.41;98466.09;10383775;28;20554;-74
2020/12/30 02:55:09;;;;;;;7.82;6.15;;;;;;;5.45;77.15;98462.47;10401169;28;20041;-72
2020/12/30 03:00:11;;;;;;;8.20;6.60;;;;;;;5.43;77.28;98469.69;10385610;28;20431;-73
2020/12/30 03:05:12;;;;;;;8.43;6.90;;;;;;;5.47;77.42;98474.56;10373917;28;20080;-73
2020/12/30 03:10:13;;;;;;;6.13;5.40;;;;;;;5.40;77.27;98475.25;10382334;28;20053;-72
2020/12/30 03:15:14;;;;;;;8.18;5.75;;;;;;;5.35;78.24;98475.66;10376972;28;20560;-73
2020/12/30 03:20:16;;;;;;;6.85;5.90;;;;;;;5.35;78.20;98477.47;10383956;28;20450;-73
2020/12/30 03:25:17;;;;;;;6.88;5.35;;;;;;;5.35;78.13;98472.19;10401251;28;20049;-73
2020/12/30 03:30:18;;;;;;;8.55;6.25;;;;;;;5.35;78.31;98472.19;10388687;28;20099;-73
2020/12/30 03:35:24;;;;;;;7.57;4.65;;;;;;;5.38;78.33;98477.19;10385158;28;20048;-73
2020/12/30 03:40:26;;;;;;;6.13;5.50;;;;;;;5.41;79.07;98482.22;10384570;28;20719;-72
2020/12/30 03:45:27;;;;;;;7.00;6.28;;;;;;;5.38;78.99;98478.03;10386551;28;20675;-72
2020/12/30 03:50:28;;;;;;;8.98;6.18;;;;;;;5.39;79.33;98489.41;10391660;28;20057;-74
2020/12/30 03:55:29;;;;;;;7.45;6.43;;;;;;;5.32;80.06;98481.19;10398938;28;20057;-73
2020/12/30 04:00:31;;;;;;;7.53;6.82;;;;;;;5.37;80.65;98475.53;10387984;28;20049;-72
2020/12/30 04:05:32;;;;;;;7.45;6.75;;;;;;;5.49;80.71;98488.50;10389652;28;20077;-72
2020/12/30 04:10:33;;;;;;;8.75;7.70;;;;;;;5.41;81.03;98488.31;10378519;28;20054;-72
2020/12/30 04:15:35;;;;;;;8.98;7.93;;;;;;;5.34;81.50;98486.34;10406058;28;20072;-73
2020/12/30 04:20:36;;;;;;;8.43;7.63;;;;;;;5.42;81.65;98483.84;10399789;28;20050;-71
2020/12/30 04:25:37;;;;;;;9.70;7.53;;;;;;;5.39;81.76;98492.03;10393951;28;20064;-73
2020/12/30 04:30:38;;;;;;;9.38;7.88;;;;;;;5.28;82.16;98499.13;10389821;28;20087;-73
2020/12/30 04:35:40;;;;;;;7.97;7.18;;;;;;;5.26;82.12;98493.13;10401897;28;20054;-72
2020/12/30 04:40:41;;;;;;;8.43;7.30;;;;;;;5.25;82.27;98503.81;10384084;28;20053;-72
2020/12/30 04:45:43;;;;;;;7.20;6.50;;;;;;;5.22;83.04;98504.06;10396617;28;20053;-72
2020/12/30 04:50:44;;;;;;;8.63;7.47;;;;;;;5.09;83.85;98510.41;10380770;28;20085;-73
2020/12/30 04:55:48;;;;;;;7.82;7.03;;;;;;;5.12;83.43;98504.88;10397023;28;20049;-72
2020/12/30 05:00:51;;;;;;;9.60;7.47;;;;;;;5.11;83.62;98505.00;10406815;28;20045;-72
2020/12/30 05:05:54;;;;;;;7.35;6.68;;;;;;;5.07;83.80;98507.03;10385986;28;20486;-71
2020/12/30 05:10:56;;;;;;;8.90;8.00;;;;;;;5.00;84.23;98510.34;10397884;28;20045;-72
2020/12/30 05:15:57;;;;;;;7.88;7.07;;;;;;;5.04;84.30;98515.22;10395944;28;20092;-72
2020/12/30 05:20:58;;;;;;;8.55;6.90;;;;;;;4.94;84.01;98520.47;10417424;28;20443;-72
2020/12/30 05:26:01;;;;;;;7.68;6.63;;;;;;;5.02;84.12;98530.34;10411740;28;20609;-70
2020/12/30 05:31:03;;;;;;;7.57;6.88;;;;;;;4.96;83.96;98542.25;10383621;28;20069;-72
2020/12/30 05:36:06;;;;;;;6.60;5.88;;;;;;;4.90;84.31;98541.94;10388195;28;20107;-73
2020/12/30 05:41:18;;;;;;;7.60;6.40;;;;;;;4.89;84.68;98543.72;10388533;28;20076;-71
2020/12/30 05:46:28;;;;;;;6.88;6.18;;;;;;;4.86;84.64;98546.63;10391743;28;20111;-73
2020/12/30 05:51:30;;;;;;;7.10;6.30;;;;;;;4.83;84.69;98548.69;10375267;28;20061;-73
2020/12/30 05:56:32;;;;;;;6.47;5.88;;;;;;;4.79;85.01;98556.03;10386991;28;20054;-75
2020/12/30 06:01:36;;;;;;;6.93;5.97;;;;;;;4.85;85.10;98565.19;10391784;28;20049;-75
2020/12/30 06:06:39;;;;;;;7.30;6.63;;;;;;;4.96;84.57;98563.34;10382615;28;20466;-73
2020/12/30 06:11:50;;;;;;;7.50;6.90;;;;;;;4.90;84.76;98576.22;10397234;28;20056;-72
2020/12/30 06:16:55;;;;;;;7.30;6.60;;;;;;;4.83;85.15;98570.59;10383491;28;20112;-72
2020/12/30 06:21:57;;;;;;;7.95;6.93;;;;;;;4.88;84.93;98581.63;10382887;28;20046;-72
2020/12/30 06:27:03;;;;;;;6.80;6.20;;;;;;;4.91;85.13;98584.00;10389551;28;20045;-72
2020/12/30 06:32:04;;;;;;;7.65;6.95;;;;;;;4.89;84.95;98593.81;10370151;28;20054;-71
2020/12/30 06:37:05;;;;;;;9.57;7.25;;;;;;;4.88;85.37;98597.44;10369641;28;20049;-71
2020/12/30 06:42:06;;;;;;;7.45;6.75;;;;;;;4.74;85.64;98601.22;10333071;28;20123;-69
2020/12/30 06:47:13;;;;;;;7.03;6.15;;;;;;;4.76;85.81;98614.28;10350101;28;20546;-69
2020/12/30 06:52:28;;;;;;;7.72;6.93;;;;;;;4.83;85.71;98618.06;10333796;28;20062;-71
2020/12/30 06:57:40;;;;;;;6.75;6.03;;;;;;;4.89;85.55;98617.53;10331538;28;20060;-70
2020/12/30 07:02:42;;;;;;;6.82;5.22;;;;;;;4.85;85.09;98623.19;10368101;23;20121;-66
2020/12/30 07:07:43;;;;;;;7.30;5.88;;;;;;;4.91;85.53;98636.72;10325897;28;20206;-67
2020/12/30 07:12:44;;;;;;;7.53;5.65;;;;;;;4.92;85.22;98638.41;10340637;28;20547;-64
2020/12/30 07:17:47;;;;;;;5.82;5.30;;;;;;;4.95;84.92;98643.44;10373662;28;20053;-65
2020/12/30 07:22:49;;;;;;;8.25;6.30;;;;;;;5.06;84.36;98653.09;10381194;28;20064;-64
2020/12/30 07:27:53;;;;;;;6.25;4.90;;;;;;;5.08;84.12;98660.88;10375840;28;20061;-65
2020/12/30 07:32:56;;;;;;;5.28;4.80;;;;;;;4.98;84.15;98658.16;10387474;28;20053;-64
2020/12/30 07:38:00;;;;;;;6.28;5.20;;;;;;;5.02;84.16;98678.03;10380864;28;20042;-65
2020/12/30 07:43:01;;;;;;;4.85;4.32;;;;;;;4.99;84.44;98677.47;10377891;28;20362;-65
2020/12/30 07:48:08;;;;;;;5.03;4.15;;;;;;;4.92;83.86;98688.53;10375780;28;20518;-66
2020/12/30 07:53:16;;;;;;;6.75;4.90;;;;;;;4.99;84.45;98695.91;10373959;28;20111;-66
2020/12/30 07:58:18;;;;;;;4.68;4.20;;;;;;;5.08;83.15;98709.19;10375140;28;20060;-67
2020/12/30 08:03:22;;;;;;;4.30;3.90;;;;;;;5.11;82.93;98713.38;10374147;28;20687;-65
2020/12/30 08:08:24;;;;;;;4.93;3.93;;;;;;;5.15;82.97;98722.72;10380637;28;20107;-65
2020/12/30 08:13:25;;;;;;;3.58;3.28;;;;;;;5.12;82.92;98728.25;10374791;28;20113;-69
2020/12/30 08:18:26;;;;;;;4.03;3.20;;;;;;;5.04;83.19;98728.03;10374053;28;20109;-69
2020/12/30 08:23:28;;;;;;;4.10;3.75;;;;;;;5.03;83.38;98739.53;10373183;28;20053;-65
2020/12/30 08:28:29;;;;;;;4.97;3.50;;;;;;;5.00;83.22;98745.03;10373453;28;20065;-64
2020/12/30 08:33:31;;;;;;;5.78;3.72;;;;;;;4.94;83.46;98749.88;10375175;28;20079;-65
2020/12/30 08:38:33;;;;;;;5.75;3.83;;;;;;;5.01;83.54;98757.28;10373385;28;20406;-64
2020/12/30 08:43:44;;;;;;;3.95;3.55;;;;;;;5.04;82.96;98755.22;10371025;28;20107;-65
2020/12/30 08:48:48;;;;;;;4.55;3.50;;;;;;;5.17;83.41;98770.91;10373182;28;21960;-65
2020/12/30 08:53:50;;;;;;;5.82;3.50;;;;;;;5.02;83.00;98777.44;10371565;28;20414;-65
2020/12/30 08:58:57;;;;;;;5.53;3.47;;;;;;;5.12;83.12;98783.63;10372854;28;20052;-65
2020/12/30 09:04:09;;;;;;;5.65;3.70;;;;;;;5.12;82.79;98778.34;10373252;28;20057;-65
2020/12/30 09:09:16;;;;;;;4.03;3.42;;;;;;;5.13;82.41;98786.16;10376025;28;20092;-67
2020/12/30 09:14:21;;;;;;;4.78;3.17;;;;;;;5.28;81.79;98793.75;10371267;28;20064;-68
2020/12/30 09:19:23;;;;;;;4.20;2.95;;;;;;;5.39;81.49;98795.50;10371353;28;20600;-66
2020/12/30 09:24:24;;;;;;;4.35;2.78;;;;;;;5.39;81.25;98798.16;10370337;28;20076;-66
2020/12/30 09:29:26;;;;;;;4.50;2.85;;;;;;;5.44;81.25;98810.00;10373479;28;20076;-67
2020/12/30 09:34:30;;;;;;;5.28;3.35;;;;;;;5.51;80.84;98807.72;10372536;28;20081;-67
2020/12/30 09:39:32;;;;;;;4.75;3.38;;;;;;;5.33;81.29;98812.69;10369614;28;20139;-65
2020/12/30 09:44:33;;;;;;;4.47;2.63;;;;;;;5.27;81.37;98803.47;10371348;28;20434;-66
2020/12/30 09:49:35;;;;;;;5.53;3.40;;;;;;;5.46;80.53;98817.78;10365985;28;20065;-66
2020/12/30 09:54:37;;;;;;;4.00;2.60;;;;;;;5.48;80.02;98810.59;10365763;28;20041;-65
2020/12/30 09:59:38;;;;;;;3.85;2.67;;;;;;;5.39;80.38;98806.06;10368267;28;20064;-66
2020/12/30 10:04:42;;;;;;;3.45;3.00;;;;;;;5.48;80.23;98823.81;10371587;28;20168;-65
2020/12/30 10:09:43;;;;;;;3.58;2.20;;;;;;;5.38;79.89;98810.50;10369071;28;20472;-66
2020/12/30 10:14:44;;;;;;;3.90;2.45;;;;;;;5.47;80.44;98836.16;10372931;28;20076;-67
2020/12/30 10:19:46;;;;;;;3.30;2.65;;;;;;;5.52;80.44;98848.97;10371054;28;20049;-67
2020/12/30 10:24:48;;;;;;;3.58;2.47;;;;;;;5.45;79.69;98839.88;10369867;28;20065;-66
2020/12/30 10:29:49;;;;;;;7.38;2.75;;;;;;;5.49;78.93;98842.16;10369867;28;20069;-66
2020/12/30 10:34:51;;;;;;;3.63;2.47;;;;;;;5.63;78.79;98845.44;10367985;28;20045;-67
2020/12/30 10:39:52;;;;;;;3.22;2.80;;;;;;;5.71;78.80;98842.19;10370429;28;20041;-65
2020/12/30 10:44:54;;;;;;;3.90;2.83;;;;;;;5.91;77.89;98846.63;10373719;28;20456;-64
2020/12/30 10:49:55;;;;;;;5.45;3.42;;;;;;;6.05;78.05;98844.66;10368857;28;20056;-67
2020/12/30 10:54:56;;;;;;;4.30;3.00;;;;;;;6.05;77.85;98845.53;10371784;28;20091;-66
2020/12/30 10:59:58;;;;;;;6.70;4.15;;;;;;;6.13;77.82;98847.50;10370682;28;20060;-66
2020/12/30 11:05:00;;;;;;;3.65;3.03;;;;;;;5.86;77.33;98832.97;10368718;28;20488;-67
2020/12/30 11:10:01;;;;;;;3.22;2.92;;;;;;;6.16;77.21;98847.25;10371719;28;20163;-67
2020/12/30 11:15:05;;;;;;;2.97;2.58;;;;;;;6.17;76.31;98835.69;10370970;28;20049;-67
2020/12/30 11:20:06;;;;;;;4.30;3.22;;;;;;;6.32;75.81;98844.13;10374066;28;20556;-68
2020/12/30 11:25:08;;;;;;;4.57;3.17;;;;;;;6.65;74.34;98848.34;10371957;28;20049;-67
2020/12/30 11:30:09;;;;;;;8.52;3.10;;;;;;;6.85;73.86;98851.06;10361189;28;20429;-68
2020/12/30 11:35:11;;;;;;;3.75;2.92;;;;;;;6.89;72.95;98847.16;10388012;28;20057;-68
2020/12/30 11:40:13;;;;;;;4.70;2.80;;;;;;;6.68;73.33;98849.84;10371403;28;20057;-68
2020/12/30 11:45:15;;;;;;;3.65;2.40;;;;;;;6.87;72.94;98849.09;10370849;28;20049;-68
2020/12/30 11:50:16;;;;;;;4.03;3.53;;;;;;;6.78;74.00;98852.56;10368290;28;20057;-67
2020/12/30 11:55:19;;;;;;;4.63;4.20;;;;;;;6.48;73.76;98831.28;10370817;28;20046;-67
2020/12/30 12:00:21;;;;;;;3.67;2.80;;;;;;;6.53;73.62;98844.94;10363942;28;20395;-66
2020/12/30 12:05:22;;;;;;;2.72;2.40;;;;;;;6.55;73.64;98844.81;10375681;28;20123;-66
2020/12/30 12:10:24;;;;;;;2.55;2.28;;;;;;;6.45;73.25;98842.09;10376680;28;20057;-66
2020/12/30 12:15:25;;;;;;;2.55;2.30;;;;;;;6.46;73.10;98849.09;10382121;28;20062;-65
2020/12/30 12:20:27;;;;;;;3.58;2.45;;;;;;;6.56;73.15;98841.22;10376067;28;20159;-64
2020/12/30 12:25:29;;;;;;;3.25;2.45;;;;;;;6.53;72.86;98849.38;10373896;28;20076;-65
2020/12/30 12:30:31;;;;;;;2.33;2.03;;;;;;;6.43;72.45;98854.63;10377044;28;20057;-66
2020/12/30 12:35:33;;;;;;;5.75;2.83;;;;;;;6.42;73.15;98860.06;10377228;28;20068;-63
2020/12/30 12:40:35;;;;;;;25.50;23.27;;;;;;;6.35;73.79;98852.66;10335548;28;20053;-66
2020/12/30 12:45:37;;;;;;;8.35;6.68;;;;;;;6.33;73.49;98836.06;10372022;28;20071;-65
2020/12/30 12:50:38;;;;;;;11.27;10.18;;;;;;;6.35;73.89;98847.38;10373181;28;20064;-67
2020/12/30 12:55:40;;;;;;;6.95;6.15;;;;;;;6.26;73.99;98866.66;10363738;28;20068;-67
2020/12/30 13:00:41;;;;;;;5.05;3.63;;;;;;;6.21;74.98;98874.09;10367016;28;20045;-66
2020/12/30 13:05:45;;;;;;;4.07;2.85;;;;;;;6.22;74.89;98867.88;10352526;23;20484;-68
2020/12/30 13:10:47;;;;;;;23.27;18.13;;;;;;;6.18;75.48;98867.31;10335019;28;20046;-69
2020/12/30 13:15:51;;;;;;;6.50;3.75;;;;;;;6.30;75.54;98870.69;10341019;28;20061;-71
2020/12/30 13:20:56;;;;;;;11.07;9.90;;;;;;;6.51;74.61;98875.94;10359335;28;20046;-71
2020/12/30 13:25:58;;;;;;;4.40;3.58;;;;;;;6.58;74.48;98876.28;10352030;28;20072;-72
2020/12/30 13:30:59;;;;;;;3.85;2.70;;;;;;;6.52;74.04;98879.44;10342614;28;20050;-70
2020/12/30 13:36:00;;;;;;;5.00;3.33;;;;;;;6.51;73.53;98888.34;10341302;28;20101;-72
2020/12/30 13:41:01;;;;;;;2.55;2.20;;;;;;;6.46;72.67;98880.81;10339472;28;20496;-72
2020/12/30 13:46:03;;;;;;;4.32;3.92;;;;;;;6.39;72.27;98892.84;10337233;28;20141;-72
2020/12/30 13:51:06;;;;;;;4.47;2.50;;;;;;;6.32;72.47;98889.06;10338113;28;20136;-72
2020/12/30 13:56:07;;;;;;;3.10;2.00;;;;;;;6.28;73.10;98888.50;10358460;28;20053;-72
2020/12/30 14:01:08;;;;;;;2.53;2.33;;;;;;;6.42;73.57;98891.78;10355261;28;20399;-73
2020/12/30 14:06:10;;;;;;;2.50;2.03;;;;;;;6.55;71.90;98901.16;10353190;28;20072;-71
2020/12/30 14:11:11;;;;;;;3.30;2.53;;;;;;;6.55;71.78;98901.16;10349977;28;20052;-73
2020/12/30 14:16:13;;;;;;;4.32;2.25;;;;;;;6.65;71.63;98908.31;10372424;28;20460;-71
2020/12/30 14:21:16;;;;;;;3.88;2.40;;;;;;;6.55;71.74;98910.91;10337740;28;20050;-71
2020/12/30 14:26:22;;;;;;;3.33;3.03;;;;;;;6.52;71.93;98916.47;10347283;28;20053;-74
2020/12/30 14:31:23;;;;;;;1.55;1.40;;;;;;;6.35;70.95;98926.66;10379991;28;20437;-74
2020/12/30 14:36:25;;;;;;;1.17;0.95;;;;;;;5.91;71.60;98923.22;10354634;28;20143;-69
2020/12/30 14:41:27;;;;;;;1.08;0.73;;;;;;;5.74;72.10;98927.25;10358959;28;20057;-72
2020/12/30 14:46:33;;;;;;;1.02;0.88;;;;;;;5.77;71.70;98939.38;10342126;28;20057;-75
2020/12/30 14:51:35;;;;;;;0.93;0.80;;;;;;;5.77;72.19;98948.13;10336777;28;20232;-73
2020/12/30 14:56:36;;;;;;;0.90;0.70;;;;;;;5.74;72.84;98953.66;10347880;28;20141;-71
2020/12/30 15:01:38;;;;;;;3.92;2.42;;;;;;;6.04;72.16;98954.78;10351253;28;20053;-71
2020/12/30 15:06:39;;;;;;;2.88;2.38;;;;;;;6.22;70.55;98962.16;10341425;28;20068;-73
2020/12/30 15:11:40;;;;;;;1.92;1.40;;;;;;;6.26;70.93;98953.84;10342335;28;20073;-70
2020/12/30 15:16:42;;;;;;;1.48;1.38;;;;;;;6.24;71.01;98965.50;10310587;28;20045;-70
2020/12/30 15:21:43;;;;;;;2.05;1.50;;;;;;;6.13;71.60;98972.53;10362081;28;20315;-71
2020/12/30 15:26:44;;;;;;;2.85;2.03;;;;;;;6.14;71.84;98981.28;10372007;28;20077;-73
2020/12/30 15:31:46;;;;;;;3.20;2.42;;;;;;;6.14;73.08;98991.84;10375017;28;20050;-69
2020/12/30 15:36:47;;;;;;;3.55;2.20;;;;;;;6.20;72.29;98996.66;10363033;28;20038;-72
2020/12/30 15:41:48;;;;;;;2.03;1.60;;;;;;;6.20;71.57;98996.66;10381611;28;20057;-75
2020/12/30 15:46:53;;;;;;;3.42;1.80;;;;;;;6.15;70.59;99009.38;10351480;28;20360;-70
2020/12/30 15:51:56;;;;;;;2.17;1.83;;;;;;;6.14;70.83;99013.84;10357943;28;20140;-69
2020/12/30 15:56:57;;;;;;;4.03;2.38;;;;;;;6.16;70.32;99016.34;10358196;28;20064;-71
2020/12/30 16:01:59;;;;;;;3.38;2.10;;;;;;;6.19;70.74;99018.75;10349515;28;20046;-71
2020/12/30 16:07:00;;;;;;;4.30;1.85;;;;;;;6.18;70.49;99017.06;10341642;28;20046;-73
2020/12/30 16:12:02;;;;;;;4.68;4.13;;;;;;;6.13;71.41;99021.91;10376091;28;20061;-73
2020/12/30 16:17:03;;;;;;;4.28;3.58;;;;;;;5.98;72.26;99043.28;10355497;28;20034;-71
2020/12/30 16:22:04;;;;;;;4.18;2.13;;;;;;;5.93;71.92;99053.38;10336887;28;20045;-70
2020/12/30 16:27:06;;;;;;;4.15;2.30;;;;;;;5.83;72.23;99058.53;10337694;28;20058;-72
2020/12/30 16:32:07;;;;;;;2.78;2.20;;;;;;;5.80;71.73;99057.97;10346366;28;20045;-71
2020/12/30 16:37:08;;;;;;;2.47;1.90;;;;;;;5.65;71.27;99063.47;10334527;28;20058;-71
2020/12/30 16:42:10;;;;;;;2.13;1.60;;;;;;;5.71;71.09;99063.97;10364925;28;20050;-71
2020/12/30 16:47:12;;;;;;;3.55;1.90;;;;;;;5.75;71.75;99073.31;10349826;28;20050;-71
2020/12/30 16:52:13;;;;;;;2.08;1.83;;;;;;;5.78;71.59;99086.28;10345580;28;20080;-70
2020/12/30 16:57:14;;;;;;;2.63;2.15;;;;;;;5.63;70.96;99083.91;10349630;28;20183;-71
2020/12/30 17:02:16;;;;;;;4.32;1.90;;;;;;;5.54;70.40;99089.91;10344931;28;20042;-70
2020/12/30 17:07:17;;;;;;;2.17;1.67;;;;;;;5.46;70.74;99105.47;10348868;28;20107;-70
2020/12/30 17:12:20;;;;;;;2.63;1.90;;;;;;;5.45;70.76;99098.50;10363249;28;20050;-71
2020/12/30 17:17:21;;;;;;;2.80;1.98;;;;;;;5.41;70.48;99100.56;10358427;28;20120;-72
2020/12/30 17:22:24;;;;;;;3.60;2.00;;;;;;;5.31;70.84;99103.09;10344551;28;20139;-72
2020/12/30 17:27:26;;;;;;;2.45;1.92;;;;;;;5.19;70.66;99096.09;10340624;28;20159;-73
2020/12/30 17:32:28;;;;;;;2.17;1.60;;;;;;;5.19;69.98;99111.91;10336053;28;20053;-72
2020/12/30 17:37:37;;;;;;;2.38;2.05;;;;;;;5.20;70.43;99113.59;10339549;28;20045;-71
2020/12/30 17:42:38;;;;;;;2.60;2.40;;;;;;;5.07;69.74;99112.84;10322794;28;20454;-71
2020/12/30 17:47:40;;;;;;;5.80;3.30;;;;;;;5.07;69.27;99107.59;10351334;28;20057;-71
2020/12/30 17:52:41;;;;;;;3.00;2.13;;;;;;;5.06;70.01;99116.44;10341203;28;20076;-71
2020/12/30 17:57:42;;;;;;;3.60;2.05;;;;;;;5.01;70.58;99129.16;10335513;28;20423;-70
2020/12/30 18:02:47;;;;;;;2.47;2.10;;;;;;;4.99;71.41;99133.72;10336274;28;20159;-70
2020/12/30 18:07:49;;;;;;;3.67;2.35;;;;;;;4.93;72.01;99138.47;10335551;28;20546;-71
2020/12/30 18:12:50;;;;;;;3.42;3.08;;;;;;;4.82;73.14;99143.72;10356429;28;20049;-71
2020/12/30 18:17:51;;;;;;;3.50;3.20;;;;;;;4.71;74.00;99141.03;10338665;28;20457;-71
2020/12/30 18:22:52;;;;;;;3.05;2.60;;;;;;;4.57;75.44;99140.25;10344734;28;20092;-71
2020/12/30 18:27:54;;;;;;;3.45;3.15;;;;;;;4.53;76.17;99145.84;10344790;28;20492;-70
2020/12/30 18:32:55;;;;;;;4.72;3.28;;;;;;;4.52;77.12;99155.56;10338341;28;20096;-72
2020/12/30 18:37:57;;;;;;;4.85;3.28;;;;;;;4.52;77.50;99159.97;10337193;28;21520;-71
2020/12/30 18:42:59;;;;;;;3.85;3.50;;;;;;;4.45;78.10;99170.13;10362501;28;20045;-72
2020/12/30 18:48:00;;;;;;;6.05;4.25;;;;;;;4.42;78.51;99175.63;10350178;28;20105;-71
2020/12/30 18:53:02;;;;;;;5.15;4.65;;;;;;;4.38;78.26;99171.53;10362592;28;20049;-71
2020/12/30 18:58:03;;;;;;;4.68;4.22;;;;;;;4.40;78.51;99175.75;10341062;28;20052;-70
2020/12/30 19:03:05;;;;;;;5.20;4.70;;;;;;;4.43;78.14;99182.59;10336945;23;20060;-68
2020/12/30 19:08:07;;;;;;;4.63;4.15;;;;;;;4.34;77.98;99177.97;10296300;28;20088;-69
2020/12/30 19:13:09;;;;;;;5.38;4.22;;;;;;;4.44;79.16;99163.19;10314433;28;20073;-67
2020/12/30 19:18:11;;;;;;;5.88;4.47;;;;;;;4.41;77.94;99164.25;10302189;28;20137;-67
2020/12/30 19:23:14;;;;;;;6.03;4.88;;;;;;;4.45;78.11;99175.41;10290018;28;20070;-69
2020/12/30 19:28:18;;;;;;;8.20;7.30;;;;;;;4.53;78.52;99193.31;10281979;28;20115;-68
2020/12/30 19:33:27;;;;;;;6.45;5.85;;;;;;;4.52;78.56;99200.38;10242038;28;20050;-68
2020/12/30 19:38:41;;;;;;;7.63;6.03;;;;;;;4.14;78.62;99153.88;10260910;28;20056;-66
2020/12/30 19:43:44;;;;;;;6.15;5.63;;;;;;;4.52;78.75;99208.28;10322380;28;20444;-69
2020/12/30 19:48:56;;;;;;;6.60;5.80;;;;;;;4.53;78.38;99198.56;10299162;28;20064;-69
2020/12/30 19:53:59;;;;;;;7.53;6.00;;;;;;;4.42;77.70;99188.81;10284951;28;20461;-65
2020/12/30 19:59:01;;;;;;;10.68;9.70;;;;;;;4.54;77.27;99205.53;10312193;28;20554;-63
2020/12/30 20:04:04;;;;;;;7.82;7.00;;;;;;;3.91;77.77;99112.56;10316001;28;20061;-68
2020/12/30 20:09:05;;;;;;;7.43;6.65;;;;;;;4.21;77.71;99184.13;10313416;28;20081;-66
2020/12/30 20:14:07;;;;;;;8.25;7.32;;;;;;;4.38;78.20;99221.59;10294436;28;20054;-67
2020/12/30 20:19:10;;;;;;;7.35;6.53;;;;;;;4.27;77.77;99198.66;10302743;28;20058;-68
2020/12/30 20:24:11;;;;;;;5.95;5.40;;;;;;;3.96;76.88;99131.50;10304122;28;20245;-68
2020/12/30 20:29:13;;;;;;;6.13;5.60;;;;;;;4.35;77.11;99212.09;10319662;28;20377;-71
2020/12/30 20:34:15;;;;;;;6.05;5.45;;;;;;;4.38;77.32;99218.97;10319266;28;20542;-67
2020/12/30 20:39:18;;;;;;;6.95;6.15;;;;;;;4.31;77.29;99201.91;10311379;28;20101;-64
2020/12/30 20:44:19;;;;;;;6.70;6.10;;;;;;;4.24;77.34;99189.16;10327509;28;20498;-68
2020/12/30 20:49:21;;;;;;;6.55;5.72;;;;;;;4.43;76.80;99235.31;10316065;28;20480;-66
2020/12/30 20:54:23;;;;;;;6.65;5.85;;;;;;;4.23;77.46;99207.72;10323382;28;20057;-66
2020/12/30 20:59:27;;;;;;;5.88;5.30;;;;;;;4.23;77.49;99219.13;10323350;28;20160;-66
2020/12/30 21:04:30;;;;;;;15.32;12.60;;;;;;;4.02;77.67;99195.13;10306836;28;20097;-65
2020/12/30 21:09:32;;;;;;;6.18;5.57;;;;;;;3.67;77.13;99131.78;10320970;28;20416;-66
2020/12/30 21:14:33;;;;;;;6.93;5.57;;;;;;;3.78;76.90;99145.00;10313197;28;20061;-69
2020/12/30 21:19:35;;;;;;;6.22;5.63;;;;;;;4.23;76.13;99224.38;10333823;28;20531;-66
2020/12/30 21:24:37;;;;;;;9.25;8.35;;;;;;;4.16;75.68;99211.72;10328746;28;20120;-66
2020/12/30 21:29:39;;;;;;;6.10;5.50;;;;;;;3.99;75.37;99199.75;10293961;28;20742;-68
2020/12/30 21:34:40;;;;;;;8.00;7.15;;;;;;;4.06;75.81;99216.81;10317631;28;20415;-67
2020/12/30 21:39:43;;;;;;;8.40;7.43;;;;;;;3.90;75.98;99203.88;10338752;28;20065;-69
2020/12/30 21:44:45;;;;;;;7.03;6.40;;;;;;;3.86;76.84;99220.84;10310995;28;20544;-66
2020/12/30 21:49:47;;;;;;;7.20;6.50;;;;;;;3.87;77.45;99223.38;10309209;28;20885;-66
2020/12/30 21:54:52;;;;;;;7.10;6.50;;;;;;;3.13;78.16;99122.31;10309921;28;20045;-66
2020/12/30 21:59:54;;;;;;;7.13;6.20;;;;;;;3.87;77.98;99239.16;10313913;28;20054;-69
2020/12/30 22:04:55;;;;;;;7.25;6.55;;;;;;;3.78;78.27;99236.31;10321484;28;20054;-67
2020/12/30 22:09:59;;;;;;;6.82;6.13;;;;;;;3.85;77.99;99254.22;10330984;28;20058;-67
2020/12/30 22:15:01;;;;;;;7.63;6.72;;;;;;;3.94;78.12;99244.84;10291561;28;20057;-68
2020/12/30 22:20:02;;;;;;;7.50;6.78;;;;;;;3.94;77.86;99238.75;10289324;28;20480;-65
2020/12/30 22:25:04;;;;;;;8.50;7.70;;;;;;;3.90;77.96;99248.63;10325616;28;20061;-66
2020/12/30 22:30:06;;;;;;;8.80;8.00;;;;;;;3.83;77.70;99216.63;10295731;28;20366;-66
2020/12/30 22:35:07;;;;;;;8.32;7.50;;;;;;;3.92;77.50;99252.00;10307242;28;21914;-68
2020/12/30 22:40:09;;;;;;;7.72;6.55;;;;;;;3.78;78.08;99236.31;10297970;28;20050;-69
2020/12/30 22:45:10;;;;;;;7.93;6.78;;;;;;;3.74;78.38;99243.59;10297315;28;20062;-69
2020/12/30 22:50:12;;;;;;;8.35;7.07;;;;;;;3.79;78.35;99252.00;10305525;28;20062;-64
2020/12/30 22:55:13;;;;;;;7.85;6.53;;;;;;;3.83;78.21;99269.28;10313961;28;20054;-66
2020/12/30 23:00:15;;;;;;;8.60;7.22;;;;;;;3.93;78.28;99263.38;10309702;28;20058;-66
2020/12/30 23:05:17;;;;;;;7.90;7.20;;;;;;;3.94;78.17;99265.91;10304399;28;20100;-68
2020/12/30 23:10:18;;;;;;;8.30;7.50;;;;;;;4.08;77.85;99275.47;10320659;28;20069;-69
2020/12/30 23:15:19;;;;;;;7.82;7.03;;;;;;;4.10;77.84;99270.97;10336776;28;20054;-71
2020/12/30 23:20:22;;;;;;;9.27;8.05;;;;;;;4.02;78.09;99268.00;10363578;28;20133;-68
2020/12/30 23:25:23;;;;;;;9.15;7.80;;;;;;;3.97;78.17;99268.31;10325303;28;20361;-68
2020/12/30 23:30:25;;;;;;;9.60;8.63;;;;;;;3.95;78.12;99274.63;10338435;28;20109;-69
2020/12/30 23:35:26;;;;;;;8.73;7.85;;;;;;;3.88;78.73;99276.84;10329196;28;20056;-67
2020/12/30 23:40:28;;;;;;;9.57;8.57;;;;;;;3.82;78.86;99275.47;10320600;28;20077;-68
2020/12/30 23:45:30;;;;;;;9.63;7.75;;;;;;;3.76;78.95;99252.22;10333598;28;20388;-67